Time;durP1;ratioP1;P1;durP2;ratioP2;P2;SDS_P1;SDS_P2;PMS_P1;PMS_P2;Temp;Humidity;BMP_temperature;BMP_pressure;BME280_temperature;BME280_humidity;BME280_pressure;Samples;Min_cycle;Max_cycle;Signal;HPM_P1;HPM_P2
2023/03/21 00:01:11;;;;;;;16.58;4.93;;;;;;;9.00;88.11;101429.53;4927122;28;20693;-77
2023/03/21 00:03:37;;;;;;;26.33;5.40;;;;;;;9.08;87.80;101432.31;4947390;28;20035;-77
2023/03/21 00:06:08;;;;;;;14.43;5.47;;;;;;;9.06;87.55;101431.63;4942043;28;20109;-77
2023/03/21 00:08:34;;;;;;;18.77;5.45;;;;;;;9.03;87.91;101425.91;4940703;28;20027;-77
2023/03/21 00:11:02;;;;;;;13.43;5.68;;;;;;;9.03;87.75;101428.50;4943183;28;20541;-75
2023/03/21 00:13:31;;;;;;;19.85;5.88;;;;;;;9.01;88.00;101425.22;4943050;28;21578;-77
2023/03/21 00:16:02;;;;;;;20.08;5.15;;;;;;;9.12;87.70;101420.75;4927171;28;20036;-77
2023/03/21 00:18:28;;;;;;;20.33;5.72;;;;;;;9.08;87.90;101421.97;4935543;28;20133;-75
2023/03/21 00:21:02;;;;;;;16.02;5.65;;;;;;;9.09;88.12;101409.84;4924766;28;20039;-77
2023/03/21 00:23:30;;;;;;;14.27;5.32;;;;;;;9.02;88.25;101419.06;4945814;28;20092;-76
2023/03/21 00:25:56;;;;;;;28.27;6.32;;;;;;;9.09;88.43;101412.44;4927941;28;20055;-77
2023/03/21 00:28:22;;;;;;;13.13;5.03;;;;;;;9.11;87.62;101411.34;4941660;28;20063;-77
2023/03/21 00:30:48;;;;;;;15.30;6.15;;;;;;;9.13;87.91;101414.63;4941540;28;20592;-76
2023/03/21 00:33:13;;;;;;;18.45;5.57;;;;;;;9.14;87.51;101412.88;4945003;28;20524;-77
2023/03/21 00:35:42;;;;;;;19.15;4.90;;;;;;;9.07;87.98;101411.75;4925961;28;20035;-77
2023/03/21 00:38:08;;;;;;;14.27;5.50;;;;;;;9.00;88.37;101408.84;4923385;28;20040;-77
2023/03/21 00:40:34;;;;;;;23.98;5.82;;;;;;;8.98;89.03;101402.19;4925496;28;20052;-77
2023/03/21 00:43:00;;;;;;;16.40;5.70;;;;;;;8.99;89.07;101404.66;4931334;28;20067;-77
2023/03/21 00:45:26;;;;;;;24.05;6.05;;;;;;;9.03;89.06;101403.44;4925691;28;20031;-77
2023/03/21 00:47:52;;;;;;;22.38;6.88;;;;;;;9.03;89.05;101397.44;4940010;28;20503;-77
2023/03/21 00:50:18;;;;;;;16.67;5.80;;;;;;;9.09;88.37;101397.72;4943919;28;20032;-78
2023/03/21 00:52:43;;;;;;;19.52;5.40;;;;;;;9.03;89.08;101394.84;4942090;28;20031;-76
2023/03/21 00:55:14;;;;;;;19.13;6.07;;;;;;;9.02;89.20;101393.22;4941018;28;20138;-76
2023/03/21 00:57:40;;;;;;;15.90;6.18;;;;;;;9.09;88.70;101392.53;4947179;28;20035;-76
2023/03/21 01:00:09;;;;;;;17.30;6.55;;;;;;;9.10;88.58;101391.63;4937524;28;20110;-76
2023/03/21 01:02:36;;;;;;;19.42;5.78;;;;;;;9.04;88.96;101388.72;4944090;28;20031;-77
2023/03/21 01:05:03;;;;;;;23.58;6.80;;;;;;;9.12;88.81;101392.28;4919682;28;20045;-76
2023/03/21 01:07:29;;;;;;;16.25;5.68;;;;;;;9.06;89.05;101384.22;4929591;28;20049;-77
2023/03/21 01:09:54;;;;;;;18.95;5.65;;;;;;;9.17;89.56;101384.13;4929839;28;20548;-77
2023/03/21 01:12:20;;;;;;;16.67;5.65;;;;;;;9.22;89.08;101378.56;4928535;28;20482;-76
2023/03/21 01:14:45;;;;;;;29.45;6.40;;;;;;;9.15;89.51;101375.69;4940043;28;20053;-76
2023/03/21 01:17:11;;;;;;;17.00;6.70;;;;;;;9.05;90.12;101378.25;4942624;28;20212;-78
2023/03/21 01:19:36;;;;;;;16.70;5.63;;;;;;;9.04;90.26;101371.44;4927653;28;20413;-77
2023/03/21 01:22:02;;;;;;;17.40;6.03;;;;;;;9.20;90.09;101362.34;4927742;28;20043;-77
2023/03/21 01:24:27;;;;;;;20.52;6.78;;;;;;;9.10;90.67;101370.09;4932513;28;20097;-77
2023/03/21 01:26:54;;;;;;;20.40;7.10;;;;;;;8.99;91.60;101365.84;4931631;28;20031;-76
2023/03/21 01:29:19;;;;;;;20.73;7.10;;;;;;;8.91;92.15;101363.06;4946303;28;20039;-77
2023/03/21 01:31:45;;;;;;;19.00;6.93;;;;;;;8.86;92.81;101357.50;4918817;28;20024;-78
2023/03/21 01:34:11;;;;;;;20.85;7.20;;;;;;;8.88;93.02;101365.94;4931613;28;20079;-76
2023/03/21 01:36:36;;;;;;;15.77;6.97;;;;;;;8.88;93.22;101360.78;5018264;28;20397;-77
2023/03/21 01:39:05;;;;;;;15.88;6.60;;;;;;;8.96;93.10;101361.72;4930541;28;20036;-77
2023/03/21 01:41:37;;;;;;;17.13;6.40;;;;;;;8.89;93.82;101352.88;4948337;28;20032;-77
2023/03/21 01:44:03;;;;;;;24.67;7.78;;;;;;;8.92;93.87;101349.22;4933549;28;20038;-77
2023/03/21 01:46:34;;;;;;;19.83;7.00;;;;;;;8.85;94.19;101346.31;4920530;28;20104;-76
2023/03/21 01:49:51;;;;;;;16.42;6.18;;;;;;;8.79;94.80;101336.50;4940792;28;20509;-77
2023/03/21 01:52:28;;;;;;;17.70;6.97;;;;;;;8.80;94.86;101338.16;4929660;28;20052;-77
2023/03/21 01:54:55;;;;;;;18.23;7.45;;;;;;;8.79;94.90;101343.44;4945551;28;20528;-77
2023/03/21 01:57:31;;;;;;;17.45;7.13;;;;;;;8.79;95.23;101339.09;4929226;28;20046;-77
2023/03/21 02:00:10;;;;;;;16.88;7.53;;;;;;;8.75;95.46;101335.94;4944053;28;20196;-77
2023/03/21 02:02:53;;;;;;;20.25;7.47;;;;;;;8.76;96.04;101336.78;4936205;28;20111;-76
2023/03/21 02:05:47;;;;;;;16.37;8.00;;;;;;;8.75;95.87;101340.31;4948449;28;20490;-76
2023/03/21 02:08:12;;;;;;;17.48;7.78;;;;;;;8.76;95.69;101336.78;4939345;28;20483;-76
2023/03/21 02:10:42;;;;;;;22.85;7.30;;;;;;;8.92;94.77;101331.09;4927279;28;20509;-77
2023/03/21 02:13:09;;;;;;;23.05;7.35;;;;;;;8.89;94.43;101328.78;4928304;28;20085;-76
2023/03/21 02:15:40;;;;;;;20.27;7.65;;;;;;;8.87;94.41;101326.34;4932248;28;20050;-77
2023/03/21 02:18:30;;;;;;;16.90;6.82;;;;;;;8.83;94.73;101321.53;4933934;28;20039;-76
2023/03/21 02:21:35;;;;;;;16.50;6.05;;;;;;;8.79;94.89;101323.56;4935253;28;20130;-76
2023/03/21 02:24:31;;;;;;;16.63;6.50;;;;;;;8.76;94.98;101313.50;4933270;28;20055;-77
2023/03/21 02:27:11;;;;;;;18.10;6.63;;;;;;;8.76;95.15;101319.50;4936194;28;20086;-77
2023/03/21 02:30:03;;;;;;;14.20;6.72;;;;;;;8.75;95.00;101310.09;4940665;28;20441;-77
2023/03/21 02:33:07;;;;;;;19.02;6.80;;;;;;;8.73;95.25;101306.81;4912669;28;20028;-76
2023/03/21 02:35:50;;;;;;;;;;;;;;;8.72;95.25;101299.19;4925499;28;20517;-77
2023/03/21 02:38:46;;;;;;;15.77;6.07;;;;;;;8.70;95.33;101314.00;4945839;28;19956;-77
2023/03/21 02:41:34;;;;;;;22.92;6.90;;;;;;;8.66;95.67;101305.69;4916350;28;20519;-77
2023/03/21 02:44:33;;;;;;;21.77;7.25;;;;;;;8.63;95.86;101295.63;4934280;28;20045;-77
2023/03/21 02:47:04;;;;;;;14.00;6.65;;;;;;;8.65;95.86;101293.75;4933760;28;20050;-77
2023/03/21 02:49:42;;;;;;;18.75;7.05;;;;;;;8.64;96.12;101307.59;4946578;28;20222;-77
2023/03/21 02:52:13;;;;;;;13.48;7.30;;;;;;;8.60;96.57;101297.66;4936823;28;20035;-76
2023/03/21 02:54:42;;;;;;;18.13;6.95;;;;;;;8.64;96.38;101293.88;4941827;28;20055;-76
2023/03/21 02:57:09;;;;;;;19.60;6.57;;;;;;;8.71;96.08;101288.03;4937367;28;20548;-76
2023/03/21 02:59:37;;;;;;;20.50;6.45;;;;;;;8.70;96.17;101285.56;4918110;28;20473;-77
2023/03/21 03:02:02;;;;;;;15.15;6.80;;;;;;;8.66;96.22;101282.44;4927066;28;20506;-76
2023/03/21 03:04:28;;;;;;;17.55;6.88;;;;;;;8.62;96.70;101285.44;4945193;28;20039;-77
2023/03/21 03:07:10;;;;;;;18.95;7.30;;;;;;;8.58;96.96;101288.25;4930693;28;20032;-77
2023/03/21 03:10:11;;;;;;;23.08;7.68;;;;;;;8.56;96.99;101285.00;4924893;28;20032;-77
2023/03/21 03:12:39;;;;;;;20.08;8.35;;;;;;;8.61;97.12;101273.44;4927601;28;20028;-76
2023/03/21 03:15:28;;;;;;;28.52;8.45;;;;;;;8.65;97.08;101262.72;4934878;28;20047;-77
2023/03/21 03:18:06;;;;;;;21.48;7.07;;;;;;;8.67;96.99;101271.16;4935834;28;20031;-77
2023/03/21 03:20:46;;;;;;;16.70;6.22;;;;;;;8.64;97.49;101271.41;4941300;28;20039;-77
2023/03/21 03:23:33;;;;;;;20.50;8.10;;;;;;;8.64;97.30;101273.19;4944066;28;20047;-76
2023/03/21 03:26:05;;;;;;;20.70;7.47;;;;;;;8.62;97.54;101264.75;4925104;28;20125;-77
2023/03/21 03:28:37;;;;;;;22.08;7.63;;;;;;;8.63;97.39;101262.03;4908327;28;20063;-76
2023/03/21 03:31:12;;;;;;;19.98;6.57;;;;;;;8.67;97.25;101265.19;4928708;28;20146;-77
2023/03/21 03:33:53;;;;;;;19.92;7.82;;;;;;;8.81;96.99;101261.38;4931087;28;20122;-76
2023/03/21 03:36:23;;;;;;;26.30;8.95;;;;;;;8.84;96.33;101259.34;4927740;28;20035;-76
2023/03/21 03:38:50;;;;;;;18.23;7.75;;;;;;;8.84;96.33;101261.13;4943923;28;20110;-77
2023/03/21 03:41:23;;;;;;;18.27;7.18;;;;;;;8.77;96.15;101253.88;4928570;28;20221;-77
2023/03/21 03:44:00;;;;;;;18.50;6.78;;;;;;;8.70;96.69;101257.97;4934521;28;20691;-77
2023/03/21 03:46:34;;;;;;;21.92;7.90;;;;;;;8.63;97.27;101256.06;4924581;28;20513;-76
2023/03/21 03:49:06;;;;;;;32.63;7.90;;;;;;;8.61;97.85;101261.34;4941731;28;20048;-76
2023/03/21 03:51:53;;;;;;;24.55;7.38;;;;;;;8.64;98.18;101261.06;4947762;28;20027;-77
2023/03/21 03:54:51;;;;;;;30.95;7.82;;;;;;;8.62;98.18;101250.03;4941623;28;20039;-76
2023/03/21 03:57:18;;;;;;;21.52;7.35;;;;;;;8.64;98.52;101252.50;4941986;28;20023;-76
2023/03/21 03:59:45;;;;;;;21.85;7.43;;;;;;;8.64;98.57;101252.50;4924468;28;20456;-77
2023/03/21 04:02:16;;;;;;;17.75;7.43;;;;;;;8.64;98.87;101255.91;4928056;28;20454;-76
2023/03/21 04:04:42;;;;;;;16.55;7.03;;;;;;;8.58;99.27;101264.19;4926366;28;20039;-77
2023/03/21 04:07:07;;;;;;;20.63;6.60;;;;;;;8.53;100.00;101267.19;4948773;28;20042;-76
2023/03/21 04:09:35;;;;;;;17.70;6.55;;;;;;;8.51;100.00;101263.91;4925801;28;20032;-77
2023/03/21 04:12:01;;;;;;;22.10;6.50;;;;;;;8.50;100.00;101258.88;4939583;28;20044;-76
2023/03/21 04:14:28;;;;;;;29.13;7.18;;;;;;;8.51;100.00;101263.06;4929837;28;20035;-77
2023/03/21 04:16:54;;;;;;;24.42;7.20;;;;;;;8.58;100.00;101253.84;4926214;28;20520;-77
2023/03/21 04:19:20;;;;;;;16.10;6.68;;;;;;;8.57;100.00;101249.63;4944223;28;20497;-77
2023/03/21 04:21:46;;;;;;;15.80;6.78;;;;;;;8.49;100.00;101250.28;4930919;28;20057;-77
2023/03/21 04:24:12;;;;;;;23.35;7.68;;;;;;;8.59;100.00;101245.16;4930909;28;20032;-77
2023/03/21 04:26:40;;;;;;;25.65;8.27;;;;;;;8.55;100.00;101247.19;4933919;28;20485;-77
2023/03/21 04:29:23;;;;;;;24.30;7.05;;;;;;;8.58;100.00;101236.56;4927947;28;20469;-77
2023/03/21 04:32:15;;;;;;;22.52;7.60;;;;;;;8.49;100.00;101236.53;4936757;28;20047;-77
2023/03/21 04:34:48;;;;;;;13.80;6.78;;;;;;;8.39;100.00;101237.28;4931170;28;20035;-77
2023/03/21 04:37:17;;;;;;;24.13;7.88;;;;;;;8.40;100.00;101235.53;4929850;28;20038;-77
2023/03/21 04:39:47;;;;;;;26.88;8.75;;;;;;;8.39;100.00;101231.31;4929332;28;20044;-77
2023/03/21 04:42:13;;;;;;;17.42;7.30;;;;;;;8.54;100.00;101231.78;4930817;28;20501;-77
2023/03/21 04:44:42;;;;;;;19.15;7.38;;;;;;;8.37;100.00;101239.19;4994167;28;20039;-77
2023/03/21 04:47:07;;;;;;;19.80;7.90;;;;;;;8.32;100.00;101240.53;4927015;28;20036;-77
2023/03/21 04:49:33;;;;;;;22.42;7.82;;;;;;;8.30;100.00;101242.44;4926862;28;20177;-77
2023/03/21 04:51:58;;;;;;;20.65;7.97;;;;;;;8.30;100.00;101250.19;4933267;28;20066;-77
2023/03/21 04:54:25;;;;;;;15.77;6.43;;;;;;;8.27;100.00;101240.94;4923956;28;20517;-78
2023/03/21 04:56:51;;;;;;;22.80;7.30;;;;;;;8.25;100.00;101250.59;4950133;28;20044;-78
2023/03/21 04:59:17;;;;;;;20.88;7.68;;;;;;;8.26;100.00;101239.28;4917958;28;20039;-77
2023/03/21 05:01:43;;;;;;;23.35;7.78;;;;;;;8.24;100.00;101243.75;4953708;28;20481;-78
2023/03/21 05:04:12;;;;;;;15.77;6.88;;;;;;;8.22;100.00;101239.69;4915560;28;20043;-77
2023/03/21 05:06:38;;;;;;;25.20;8.13;;;;;;;8.27;100.00;101230.59;5001253;28;20045;-77
2023/03/21 05:09:05;;;;;;;22.08;7.60;;;;;;;8.38;100.00;101216.75;4934568;28;20044;-77
2023/03/21 05:11:36;;;;;;;21.65;8.00;;;;;;;8.24;100.00;101235.19;4930140;28;20374;-77
2023/03/21 05:14:03;;;;;;;27.63;9.88;;;;;;;8.30;100.00;101221.75;4929590;28;20068;-77
2023/03/21 05:16:29;;;;;;;22.08;8.07;;;;;;;8.22;100.00;101224.19;4925434;28;20117;-77
2023/03/21 05:19:02;;;;;;;19.83;7.28;;;;;;;8.22;100.00;101224.19;4938029;28;20039;-77
2023/03/21 05:21:40;;;;;;;23.80;7.57;;;;;;;8.19;100.00;101218.34;4929769;28;20405;-76
2023/03/21 05:24:18;;;;;;;21.30;7.63;;;;;;;8.22;100.00;101214.66;4945615;28;20047;-77
2023/03/21 05:26:51;;;;;;;24.67;8.73;;;;;;;8.18;100.00;101215.88;4941058;28;20117;-77
2023/03/21 05:29:20;;;;;;;23.20;8.23;;;;;;;8.15;100.00;101213.53;4944049;28;20433;-77
2023/03/21 05:31:56;;;;;;;22.25;7.97;;;;;;;8.21;100.00;101215.59;4927731;28;20031;-77
2023/03/21 05:34:22;;;;;;;19.77;7.72;;;;;;;8.25;100.00;101223.91;4931082;28;20737;-77
2023/03/21 05:36:48;;;;;;;21.42;7.75;;;;;;;8.28;100.00;101214.13;4930321;28;20064;-76
2023/03/21 05:39:14;;;;;;;14.95;6.82;;;;;;;8.21;100.00;101215.59;4927945;28;20036;-77
2023/03/21 05:41:45;;;;;;;22.42;7.90;;;;;;;8.17;100.00;101217.66;4946736;28;20132;-77
2023/03/21 05:44:11;;;;;;;23.85;7.97;;;;;;;8.15;100.00;101213.53;4927161;28;20040;-77
2023/03/21 05:46:37;;;;;;;18.17;7.03;;;;;;;8.18;100.00;101203.75;4929581;28;20028;-77
2023/03/21 05:49:04;;;;;;;26.08;8.93;;;;;;;8.23;100.00;101218.91;4945992;28;20044;-77
2023/03/21 05:51:30;;;;;;;20.73;8.00;;;;;;;8.21;100.00;101217.38;4930480;28;20038;-77
2023/03/21 05:53:55;;;;;;;26.08;8.23;;;;;;;8.23;100.00;101211.16;4939043;28;20036;-77
2023/03/21 05:56:21;;;;;;;32.25;8.32;;;;;;;8.31;100.00;101219.06;4930550;28;20050;-77
2023/03/21 05:58:53;;;;;;;21.95;7.63;;;;;;;8.24;100.00;101219.69;4947767;28;20044;-77
2023/03/21 06:01:21;;;;;;;18.83;7.10;;;;;;;8.19;100.00;101217.50;4932670;28;20035;-76
2023/03/21 06:03:55;;;;;;;19.35;7.22;;;;;;;8.19;100.00;101222.66;4934457;28;21154;-76
2023/03/21 06:06:22;;;;;;;17.20;7.10;;;;;;;8.17;100.00;101219.41;4930406;28;20031;-76
2023/03/21 06:08:53;;;;;;;19.95;7.63;;;;;;;8.17;100.00;101222.81;4931597;28;20054;-78
2023/03/21 06:11:28;;;;;;;19.98;7.60;;;;;;;8.25;100.00;101224.75;4946815;28;20988;-76
2023/03/21 06:14:10;;;;;;;19.13;8.20;;;;;;;8.25;100.00;101224.75;4951080;28;20182;-76
2023/03/21 06:16:36;;;;;;;25.92;8.63;;;;;;;8.32;100.00;101219.84;4944650;28;20498;-76
2023/03/21 06:19:02;;;;;;;26.00;7.30;;;;;;;8.34;100.00;101212.78;4944905;28;20036;-77
2023/03/21 06:21:54;;;;;;;19.02;7.78;;;;;;;8.30;100.00;101211.41;4949142;28;20405;-77
2023/03/21 06:24:20;;;;;;;16.40;6.25;;;;;;;8.27;100.00;101217.69;4930307;28;20031;-76
2023/03/21 06:26:47;;;;;;;22.70;7.40;;;;;;;8.24;100.00;101212.75;4930493;28;20059;-76
2023/03/21 06:29:13;;;;;;;22.15;7.55;;;;;;;8.32;100.00;101218.09;4944866;28;20034;-76
2023/03/21 06:31:40;;;;;;;17.42;7.18;;;;;;;8.29;100.00;101220.13;4945722;28;20027;-77
2023/03/21 06:34:06;;;;;;;23.73;7.50;;;;;;;8.33;100.00;101221.50;4927418;28;20111;-77
2023/03/21 06:36:32;;;;;;;27.58;8.60;;;;;;;8.34;100.00;101225.72;4946934;28;20186;-76
2023/03/21 06:38:57;;;;;;;26.20;7.82;;;;;;;8.33;100.00;101229.25;4945954;28;20039;-76
2023/03/21 06:41:23;;;;;;;23.33;7.90;;;;;;;8.50;100.00;101220.91;4942430;28;20066;-76
2023/03/21 06:43:56;;;;;;;25.42;7.07;;;;;;;8.61;100.00;101224.31;4933984;28;20527;-77
2023/03/21 06:46:22;;;;;;;25.98;7.60;;;;;;;8.51;100.00;101221.72;4948500;28;20046;-76
2023/03/21 06:48:48;;;;;;;22.13;6.88;;;;;;;8.62;100.00;101215.63;4929568;28;20043;-76
2023/03/21 06:51:14;;;;;;;26.30;7.70;;;;;;;8.65;100.00;101213.59;4950187;28;20036;-76
2023/03/21 06:53:49;;;;;;;18.23;6.43;;;;;;;8.68;100.00;101210.75;4931990;28;20085;-76
2023/03/21 06:56:23;;;;;;;16.10;6.45;;;;;;;8.69;100.00;101209.78;4935731;28;20039;-75
2023/03/21 06:58:49;;;;;;;19.67;6.88;;;;;;;8.80;100.00;101201.09;4939060;28;20401;-76
2023/03/21 07:01:35;;;;;;;23.77;6.80;;;;;;;8.88;100.00;101200.44;4941408;28;20092;-76
2023/03/21 07:04:05;;;;;;;18.33;5.68;;;;;;;8.85;100.00;101192.94;4946238;28;20040;-76
2023/03/21 07:06:31;;;;;;;17.63;6.28;;;;;;;8.90;100.00;101199.31;4930399;28;20035;-76
2023/03/21 07:08:57;;;;;;;14.30;5.47;;;;;;;8.91;100.00;101200.13;4932028;28;20036;-77
2023/03/21 07:11:24;;;;;;;15.15;5.28;;;;;;;8.92;100.00;101204.38;4947098;28;20024;-75
2023/03/21 07:13:50;;;;;;;11.25;4.43;;;;;;;8.84;100.00;101204.25;4942721;28;20086;-76
2023/03/21 07:16:17;;;;;;;24.80;5.40;;;;;;;8.90;100.00;101201.09;4928470;28;20036;-76
2023/03/21 07:18:43;;;;;;;13.07;4.25;;;;;;;9.00;100.00;101194.16;4933643;28;20468;-76
2023/03/21 07:21:10;;;;;;;13.00;5.30;;;;;;;9.07;100.00;101187.50;4931768;28;20036;-76
2023/03/21 07:23:37;;;;;;;15.70;5.07;;;;;;;9.12;100.00;101190.50;4943917;28;20098;-77
2023/03/21 07:26:04;;;;;;;13.85;5.53;;;;;;;9.27;100.00;101184.91;4938946;28;20036;-77
2023/03/21 07:28:31;;;;;;;12.73;5.00;;;;;;;9.28;100.00;101196.88;4941210;28;20035;-77
2023/03/21 07:30:58;;;;;;;13.85;5.85;;;;;;;9.16;100.00;101191.03;4945329;28;20495;-78
2023/03/21 07:33:25;;;;;;;19.52;5.57;;;;;;;9.22;100.00;101198.25;4944010;28;20046;-78
2023/03/21 07:35:53;;;;;;;19.88;5.45;;;;;;;9.24;100.00;101193.75;4943549;28;20494;-77
2023/03/21 07:38:20;;;;;;;17.30;6.72;;;;;;;9.34;100.00;101201.50;4930732;28;20791;-77
2023/03/21 07:40:47;;;;;;;13.45;4.70;;;;;;;9.23;100.00;101199.88;4942383;28;20055;-77
2023/03/21 07:43:13;;;;;;;16.80;4.93;;;;;;;9.27;100.00;101200.44;4932653;28;20027;-79
2023/03/21 07:45:42;;;;;;;15.73;5.40;;;;;;;9.22;100.00;101207.78;4927119;28;20043;-77
2023/03/21 07:48:09;;;;;;;13.57;5.20;;;;;;;9.34;100.00;101207.50;4930145;28;20098;-78
2023/03/21 07:50:34;;;;;;;17.67;5.22;;;;;;;9.31;100.00;101210.34;4929108;28;20040;-78
2023/03/21 07:53:00;;;;;;;15.23;4.97;;;;;;;9.29;100.00;101214.06;4942548;28;20090;-78
2023/03/21 07:55:26;;;;;;;12.60;4.25;;;;;;;9.25;100.00;101221.28;4923291;28;20046;-78
2023/03/21 07:57:52;;;;;;;15.00;4.80;;;;;;;9.25;100.00;101216.09;4931823;28;20691;-78
2023/03/21 08:00:21;;;;;;;15.55;4.38;;;;;;;9.19;100.00;101218.41;4933155;28;20134;-79
2023/03/21 08:02:53;;;;;;;15.68;4.40;;;;;;;9.21;100.00;101217.31;4942942;28;20708;-78
2023/03/21 08:05:22;;;;;;;8.63;4.00;;;;;;;9.40;100.00;101215.66;4930925;28;20049;-79
2023/03/21 08:07:48;;;;;;;13.23;4.10;;;;;;;9.37;100.00;101216.75;4944084;28;20145;-79
2023/03/21 08:10:15;;;;;;;12.90;5.13;;;;;;;9.27;100.00;101211.59;4914378;28;20564;-79
2023/03/21 08:12:40;;;;;;;17.42;5.18;;;;;;;9.28;100.00;101215.00;4997971;28;20027;-77
2023/03/21 08:15:07;;;;;;;14.15;4.28;;;;;;;9.27;100.00;101213.38;4941055;28;20040;-78
2023/03/21 08:17:32;;;;;;;13.30;4.13;;;;;;;9.25;100.00;101223.00;4934603;28;20111;-78
2023/03/21 08:19:58;;;;;;;20.67;4.88;;;;;;;9.34;100.00;101217.03;4940043;28;20043;-78
2023/03/21 08:22:23;;;;;;;12.30;4.32;;;;;;;9.34;100.00;101217.84;4928343;28;20047;-79
2023/03/21 08:24:49;;;;;;;14.63;4.32;;;;;;;9.26;100.00;101219.50;4941809;28;20051;-77
2023/03/21 08:27:14;;;;;;;13.27;4.18;;;;;;;9.26;100.00;101225.47;4948098;28;20039;-79
2023/03/21 08:29:41;;;;;;;11.50;4.95;;;;;;;9.29;100.00;101220.03;4927969;28;20047;-79
2023/03/21 08:32:07;;;;;;;19.88;5.93;;;;;;;9.27;100.00;101218.56;4927329;28;20063;-80
2023/03/21 08:34:33;;;;;;;13.13;5.72;;;;;;;9.29;100.00;101216.63;4938742;28;20039;-77
2023/03/21 08:36:59;;;;;;;9.07;5.03;;;;;;;9.30;100.00;101218.25;4928217;28;20025;-78
2023/03/21 08:39:26;;;;;;;17.58;6.75;;;;;;;9.32;100.00;101222.34;4927002;28;20040;-77
2023/03/21 08:41:51;;;;;;;13.45;4.82;;;;;;;9.37;100.00;101215.94;4948641;28;20035;-77
2023/03/21 08:44:17;;;;;;;19.65;5.05;;;;;;;9.32;100.00;101216.34;4945598;28;20044;-77
2023/03/21 08:46:42;;;;;;;20.85;5.00;;;;;;;9.39;100.00;101227.78;4930119;28;20031;-78
2023/03/21 08:49:07;;;;;;;13.25;5.03;;;;;;;9.49;100.00;101220.00;4927828;28;20074;-77
2023/03/21 08:51:33;;;;;;;10.52;4.90;;;;;;;9.43;100.00;101226.56;4945801;28;20398;-77
2023/03/21 08:53:58;;;;;;;16.42;4.72;;;;;;;9.47;100.00;101225.31;4945120;28;20040;-77
2023/03/21 08:56:24;;;;;;;23.17;5.40;;;;;;;9.59;100.00;101223.41;4944167;28;20432;-77
2023/03/21 08:58:49;;;;;;;23.65;9.82;;;;;;;9.66;100.00;101210.72;4931540;28;20032;-77
2023/03/21 09:01:15;;;;;;;22.58;5.55;;;;;;;9.64;100.00;101222.97;4929973;28;20035;-76
2023/03/21 09:03:41;;;;;;;19.42;5.78;;;;;;;9.74;100.00;101221.19;4934615;28;21120;-76
2023/03/21 09:06:10;;;;;;;15.82;5.05;;;;;;;9.67;100.00;101215.75;4935145;28;20039;-77
2023/03/21 09:08:40;;;;;;;14.10;4.50;;;;;;;9.74;100.00;101221.19;4936646;28;20042;-77
2023/03/21 09:11:07;;;;;;;21.10;6.55;;;;;;;9.78;100.00;101217.38;4930757;28;20040;-77
2023/03/21 09:13:33;;;;;;;12.25;5.00;;;;;;;9.81;100.00;101219.66;4959168;28;20023;-76
2023/03/21 09:16:00;;;;;;;11.50;4.93;;;;;;;9.93;100.00;101207.38;4935879;28;20067;-77
2023/03/21 09:18:44;;;;;;;12.90;5.28;;;;;;;9.90;100.00;101213.63;4914291;28;20052;-76
2023/03/21 09:21:13;;;;;;;14.80;5.35;;;;;;;9.98;100.00;101214.72;4946255;28;20529;-77
2023/03/21 09:23:47;;;;;;;21.85;5.72;;;;;;;10.06;100.00;101202.69;4926891;28;20040;-77
2023/03/21 09:26:13;;;;;;;25.52;7.57;;;;;;;10.08;100.00;101202.56;4937317;28;20042;-77
2023/03/21 09:28:39;;;;;;;23.45;7.13;;;;;;;9.94;100.00;101204.66;4933200;28;20035;-76
2023/03/21 09:31:07;;;;;;;15.18;5.20;;;;;;;9.95;100.00;101205.47;4932847;28;20031;-76
2023/03/21 09:33:34;;;;;;;17.50;6.25;;;;;;;10.08;100.00;101205.94;4926405;28;20035;-76
2023/03/21 09:35:59;;;;;;;24.92;6.55;;;;;;;10.16;100.00;101200.06;4946013;28;20027;-77
2023/03/21 09:38:35;;;;;;;23.30;6.70;;;;;;;10.15;100.00;101211.38;4915918;28;20071;-76
2023/03/21 09:41:28;;;;;;;22.85;7.55;;;;;;;10.11;100.00;101202.25;4930911;28;20035;-77
2023/03/21 09:44:18;;;;;;;17.52;7.70;;;;;;;10.21;100.00;101202.19;4930290;28;20039;-77
2023/03/21 09:46:55;;;;;;;19.15;6.78;;;;;;;10.12;100.00;101196.94;4931201;28;20041;-77
2023/03/21 09:49:29;;;;;;;17.75;6.60;;;;;;;10.11;100.00;101197.06;4926341;28;20047;-78
2023/03/21 09:51:58;;;;;;;17.00;6.72;;;;;;;10.18;100.00;101197.31;4942192;28;20028;-78
2023/03/21 09:54:39;;;;;;;20.65;6.20;;;;;;;10.17;100.00;101191.34;4941445;28;20036;-78
2023/03/21 09:57:40;;;;;;;20.38;6.00;;;;;;;10.13;100.00;101192.56;4930116;28;20040;-78
2023/03/21 10:00:18;;;;;;;17.33;6.10;;;;;;;10.09;100.00;101191.22;4928121;28;20505;-78
2023/03/21 10:02:46;;;;;;;16.52;6.65;;;;;;;10.12;100.00;101175.38;4951711;28;20118;-78
2023/03/21 10:05:18;;;;;;;13.75;6.72;;;;;;;10.20;100.00;101177.25;4941494;28;20134;-81
2023/03/21 10:08:27;;;;;;;12.38;5.97;;;;;;;10.14;100.00;101176.88;4945962;28;20478;-77
2023/03/21 10:11:01;;;;;;;16.33;6.50;;;;;;;10.16;100.00;101170.75;4939102;28;20417;-78
2023/03/21 10:13:38;;;;;;;19.95;7.68;;;;;;;10.20;100.00;101166.91;4931627;28;21344;-78
2023/03/21 10:16:14;;;;;;;17.30;6.78;;;;;;;10.18;100.00;101166.22;4931015;28;20473;-77
2023/03/21 10:18:41;;;;;;;21.75;6.90;;;;;;;10.23;100.00;101158.84;4934815;28;20233;-77
2023/03/21 10:21:15;;;;;;;23.75;7.68;;;;;;;10.21;100.00;101152.97;4941636;28;20568;-77
2023/03/21 10:23:40;;;;;;;23.80;7.47;;;;;;;10.22;100.00;101150.22;4947605;28;20102;-77
2023/03/21 10:26:06;;;;;;;15.05;7.28;;;;;;;10.25;100.00;101152.53;4928591;28;20048;-77
2023/03/21 10:28:39;;;;;;;24.17;7.22;;;;;;;10.30;100.00;101144.31;4939843;28;20036;-77
2023/03/21 10:31:13;;;;;;;21.50;6.90;;;;;;;10.41;100.00;101140.75;4943206;28;20047;-77
2023/03/21 10:33:42;;;;;;;19.77;6.80;;;;;;;10.33;100.00;101134.50;4940036;28;20108;-77
2023/03/21 10:36:26;;;;;;;20.98;6.50;;;;;;;10.32;100.00;101127.72;4942464;28;20366;-77
2023/03/21 10:38:55;;;;;;;16.55;6.00;;;;;;;10.44;100.00;101130.09;4939118;28;20544;-77
2023/03/21 10:41:20;;;;;;;19.33;6.47;;;;;;;10.46;100.00;101115.19;4942966;28;20028;-76
2023/03/21 10:44:03;;;;;;;15.80;6.32;;;;;;;10.49;100.00;101107.09;4917009;28;20547;-76
2023/03/21 10:46:28;;;;;;;17.67;6.13;;;;;;;10.59;100.00;101107.88;4945923;28;20027;-76
2023/03/21 10:48:54;;;;;;;20.42;6.18;;;;;;;10.62;100.00;101109.34;4909683;28;20042;-76
2023/03/21 10:51:24;;;;;;;18.40;5.72;;;;;;;10.70;100.00;101107.66;4928858;28;20039;-76
2023/03/21 10:53:54;;;;;;;16.48;5.53;;;;;;;10.80;100.00;101106.75;4927353;28;20074;-75
2023/03/21 10:56:26;;;;;;;19.10;5.47;;;;;;;10.84;100.00;101102.88;4941601;28;20109;-76
2023/03/21 10:58:57;;;;;;;10.23;5.07;;;;;;;10.94;100.00;101090.63;4929557;28;20048;-76
2023/03/21 11:01:45;;;;;;;16.23;5.82;;;;;;;10.97;100.00;101092.13;4931744;28;20028;-76
2023/03/21 11:04:21;;;;;;;14.40;5.10;;;;;;;11.12;100.00;101089.78;4943989;28;20048;-77
2023/03/21 11:06:53;;;;;;;15.63;5.80;;;;;;;11.08;99.03;101086.69;4927919;28;20042;-76
2023/03/21 11:09:23;;;;;;;22.30;5.43;;;;;;;11.14;98.70;101086.06;4938810;28;20486;-76
2023/03/21 11:11:51;;;;;;;17.77;6.28;;;;;;;11.15;97.67;101085.13;4929863;28;20032;-76
2023/03/21 11:14:24;;;;;;;17.42;5.30;;;;;;;11.20;97.27;101082.06;4927697;28;20047;-76
2023/03/21 11:16:50;;;;;;;;;;;;;;;11.27;97.16;101089.06;4928188;28;20028;-76
2023/03/21 11:19:28;;;;;;;13.18;5.60;;;;;;;11.31;98.05;101089.56;4942062;28;20412;-76
2023/03/21 11:21:57;;;;;;;12.15;5.72;;;;;;;11.42;96.94;101091.09;4927172;28;20042;-77
2023/03/21 11:24:26;;;;;;;12.35;5.65;;;;;;;11.40;94.99;101086.06;4943051;28;20040;-76
2023/03/21 11:26:55;;;;;;;10.32;4.75;;;;;;;11.39;94.81;101089.63;4943793;28;20130;-76
2023/03/21 11:29:34;;;;;;;16.58;5.07;;;;;;;11.39;92.53;101086.22;4937739;28;20055;-77
2023/03/21 11:32:09;;;;;;;16.08;5.10;;;;;;;11.43;93.01;101075.38;4934962;28;20529;-77
2023/03/21 11:34:46;;;;;;;15.02;5.30;;;;;;;11.37;94.03;101078.56;4943944;28;20043;-76
2023/03/21 11:37:26;;;;;;;14.45;5.47;;;;;;;11.38;93.85;101072.44;4932707;28;20028;-77